Time;durP1;ratioP1;P1;durP2;ratioP2;P2;SDS_P1;SDS_P2;PMS_P1;PMS_P2;Temp;Humidity;BMP_temperature;BMP_pressure;BME280_temperature;BME280_humidity;BME280_pressure;Samples;Min_cycle;Max_cycle;Signal;HPM_P1;HPM_P2
2022/08/24 00:01:19;;;;;;;;;3.67;3.67;;;;;28.87;52.40;-15538.97;4976291;28;48331;-79
2022/08/24 00:03:45;;;;;;;;;2.00;2.00;;;;;28.89;51.90;-15198.44;4993965;28;45448;-79
2022/08/24 00:06:18;;;;;;;;;2.67;2.67;;;;;28.87;52.17;-15198.06;4993609;28;45423;-79
2022/08/24 00:08:44;;;;;;;;;1.67;1.67;;;;;28.79;52.03;-15196.56;4994187;28;45438;-79
2022/08/24 00:11:09;;;;;;;;;4.00;3.00;;;;;28.89;51.78;-14857.38;4993693;28;45646;-79
2022/08/24 00:13:35;;;;;;;;;4.00;4.00;;;;;28.93;51.92;-15540.13;4993654;28;45377;-79
2022/08/24 00:16:01;;;;;;;;;7.00;3.00;;;;;28.95;51.87;-14858.47;4994041;28;45398;-79
2022/08/24 00:18:27;;;;;;;;;3.00;3.00;;;;;28.91;52.29;-14857.66;4994385;28;45447;-79
2022/08/24 00:20:52;;;;;;;;;4.00;4.00;;;;;28.83;52.14;-15197.31;4993575;28;45407;-79
2022/08/24 00:23:18;;;;;;;;;2.00;2.00;;;;;28.74;52.35;-15536.66;4993298;28;45489;-79
2022/08/24 00:25:43;;;;;;;;;2.00;2.00;;;;;28.81;52.09;-15538.00;4993508;27;45849;-79
2022/08/24 00:28:10;;;;;;;;;1.00;1.00;;;;;28.74;52.44;-15877.47;4994051;28;45481;-79
2022/08/24 00:30:36;;;;;;;;;2.00;2.00;;;;;28.74;52.39;-16218.44;4993641;28;45533;-79
2022/08/24 00:33:02;;;;;;;;;3.00;2.00;;;;;28.73;52.73;-16559.09;4993454;28;45472;-79
2022/08/24 00:35:28;;;;;;;;;2.00;2.00;;;;;28.67;52.43;-16557.84;4993546;28;45495;-79
2022/08/24 00:37:54;;;;;;;;;4.33;3.00;;;;;28.64;52.55;-16897.97;4993100;28;45448;-79
2022/08/24 00:40:27;;;;;;;;;4.67;2.00;;;;;28.65;53.16;-17579.53;4993263;28;45559;-79
2022/08/24 00:42:54;;;;;;;;;3.67;3.67;;;;;28.58;53.17;-17578.06;4993455;28;45434;-79
2022/08/24 00:45:21;;;;;;;;;3.00;3.00;;;;;28.57;53.20;-17918.47;4993267;28;45430;-79
2022/08/24 00:47:53;;;;;;;;;3.67;3.00;;;;;28.52;53.39;-18257.91;4993801;28;45379;-79
2022/08/24 00:50:42;;;;;;;;;3.67;3.00;;;;;28.52;53.42;-18258.00;4993117;28;46299;-79
2022/08/24 00:53:12;;;;;;;;;3.67;3.33;;;;;28.50;53.77;-18938.56;4993108;28;45477;-79
2022/08/24 00:55:44;;;;;;;;;4.67;3.00;;;;;28.46;53.54;-18937.47;4993319;28;45470;-79
2022/08/24 00:58:15;;;;;;;;;3.33;3.33;;;;;28.46;53.47;-18937.59;4993500;28;45496;-79
2022/08/24 01:00:46;;;;;;;;;3.33;3.33;;;;;28.45;53.65;-19277.78;4993152;28;45497;-79
2022/08/24 01:03:12;;;;;;;;;5.33;4.00;;;;;28.48;53.87;-19278.44;4993187;28;45481;-79
2022/08/24 01:05:39;;;;;;;;;4.33;3.67;;;;;28.49;54.02;-19278.69;4992701;28;45469;-79
2022/08/24 01:08:07;;;;;;;;;3.00;3.00;;;;;28.39;54.12;-19616.66;4993406;28;45368;-79
2022/08/24 01:10:37;;;;;;;;;2.00;2.00;;;;;28.46;54.11;-19618.47;4975300;28;47142;-79
2022/08/24 01:13:06;;;;;;;;;4.33;3.00;;;;;28.44;54.42;-19617.81;4975408;28;46457;-79
2022/08/24 01:15:37;;;;;;;;;2.67;2.00;;;;;28.35;54.39;-19955.97;4992987;28;45324;-79
2022/08/24 01:21:16;;;;;;;;;2.00;1.00;;;;;28.41;54.18;-19957.66;4977791;28;45780;-78
2022/08/24 01:23:53;;;;;;;;;3.00;3.00;;;;;28.31;54.64;-19954.91;4977396;27;45538;-79
2022/08/24 01:26:24;;;;;;;;;1.67;1.67;;;;;28.28;54.61;-19956.22;4992898;28;45370;-79
2022/08/24 01:28:54;;;;;;;;;3.00;3.00;;;;;28.35;54.96;-19957.94;4993372;28;45504;-76
2022/08/24 01:31:22;;;;;;;;;5.67;3.00;;;;;28.29;54.79;-19956.50;4992414;28;46095;-76
2022/08/24 01:33:49;;;;;;;;;4.00;4.00;;;;;28.29;55.08;-19956.50;4992752;28;45422;-76
2022/08/24 01:36:32;;;;;;;;;3.67;3.00;;;;;28.27;55.26;-19955.84;4992336;28;45442;-76
2022/08/24 01:39:04;;;;;;;;;3.00;3.00;;;;;28.23;55.00;-19954.91;4992975;28;45636;-76
2022/08/24 01:41:30;;;;;;;;;2.00;2.00;;;;;28.26;55.36;-19955.56;4992120;28;46435;-76
2022/08/24 01:43:57;;;;;;;;;2.00;2.00;;;;;28.21;55.36;-19954.38;4992606;28;45396;-76
2022/08/24 01:46:23;;;;;;;;;5.00;4.00;;;;;28.22;55.14;-19954.53;4992606;28;45370;-76
2022/08/24 01:48:48;;;;;;;;;2.33;2.33;;;;;28.38;55.07;-19958.75;4975728;28;45461;-76
2022/08/24 01:51:13;;;;;;;;;3.33;3.33;;;;;28.20;55.36;-19954.25;4995358;28;45340;-76
2022/08/24 01:53:39;;;;;;;;;4.00;3.00;;;;;28.17;55.13;-19953.47;4995408;28;45736;-76
2022/08/24 01:56:04;;;;;;;;;3.33;2.33;;;;;28.18;55.11;-19953.59;4995910;28;45461;-76
2022/08/24 01:58:30;;;;;;;;;4.00;2.00;;;;;28.14;55.90;-19952.53;4996084;28;45504;-76
2022/08/24 02:00:55;;;;;;;;;2.67;2.67;;;;;28.13;55.72;-19952.41;4995295;28;46227;-75
2022/08/24 02:03:21;;;;;;;;;3.00;1.00;;;;;28.09;55.69;-19951.22;4995285;28;45875;-76
2022/08/24 02:05:50;;;;;;;;;3.67;2.33;;;;;28.11;55.87;-19951.88;4995325;28;45531;-76
2022/08/24 02:08:16;;;;;;;;;2.00;2.00;;;;;28.04;55.96;-19949.91;4995876;28;45394;-76
2022/08/24 02:10:41;;;;;;;;;5.33;3.00;;;;;27.93;55.72;-19947.13;4995077;28;46268;-76
2022/08/24 02:13:07;;;;;;;;;2.33;2.33;;;;;28.02;55.96;-19949.50;4995402;28;45453;-76
2022/08/24 02:15:39;;;;;;;;;3.00;3.00;;;;;27.98;55.65;-19948.59;4995417;28;45393;-76
2022/08/24 02:18:06;;;;;;;;;3.00;2.33;;;;;27.98;56.07;-19948.59;4995554;28;45407;-75
2022/08/24 02:20:33;;;;;;;;;5.00;4.00;;;;;27.90;56.46;-19946.47;4994842;28;46988;-76
2022/08/24 02:22:58;;;;;;;;;4.00;2.33;;;;;27.89;56.73;-19946.09;4995308;28;45405;-76
2022/08/24 02:25:24;;;;;;;;;3.00;3.00;;;;;27.82;56.83;-19944.38;4994766;28;45434;-76
2022/08/24 02:27:49;;;;;;;;;1.00;1.00;;;;;27.86;56.69;-19945.28;4995425;28;45601;-75
2022/08/24 02:30:16;;;;;;;;;3.00;3.00;;;;;27.86;56.78;-19945.44;4995112;28;46077;-79
2022/08/24 02:32:42;;;;;;;;;3.00;3.00;;;;;27.79;56.84;-19943.72;4994900;28;45476;-79
2022/08/24 02:35:08;;;;;;;;;4.00;2.00;;;;;27.83;56.65;-19944.63;4995587;28;45722;-79
2022/08/24 02:37:34;;;;;;;;;3.00;3.00;;;;;27.75;56.90;-19942.53;4995232;28;45430;-79
2022/08/24 02:40:00;;;;;;;;;4.67;4.00;;;;;27.83;56.96;-19944.50;4977184;28;47230;-79
2022/08/24 02:42:26;;;;;;;;;3.00;3.00;;;;;27.78;57.08;-19943.44;4977555;28;45398;-79
2022/08/24 02:44:52;;;;;;;;;3.33;3.33;;;;;27.80;56.98;-19943.84;4994832;28;45494;-79
2022/08/24 02:47:17;;;;;;;;;4.00;4.00;;;;;27.81;57.21;-19943.97;4994927;28;45440;-80
2022/08/24 02:49:43;;;;;;;;;3.33;2.00;;;;;27.81;57.36;-19944.09;4994457;28;46292;-79
2022/08/24 02:52:09;;;;;;;;;4.00;3.00;;;;;27.72;57.01;-19941.72;4977026;28;45924;-79
2022/08/24 02:54:34;;;;;;;;;3.00;3.00;;;;;27.77;57.09;-19943.19;4994992;28;45426;-79
2022/08/24 02:56:59;;;;;;;;;2.67;2.33;;;;;27.78;56.99;-19943.44;4995336;28;45519;-79
2022/08/24 02:59:25;;;;;;;;;4.33;2.00;;;;;27.75;57.24;-19942.53;4976879;28;47161;-79
2022/08/24 03:01:50;;;;;;;;;4.00;2.67;;;;;27.77;57.33;-19943.03;4994434;28;45407;-79
2022/08/24 03:04:17;;;;;;;;;3.33;2.00;;;;;27.73;57.59;-19942.13;4977420;28;46260;-79
2022/08/24 03:06:43;;;;;;;;;2.00;2.00;;;;;27.67;57.21;-19940.41;4994788;28;45680;-79
2022/08/24 03:09:09;;;;;;;;;3.00;3.00;;;;;27.66;57.43;-19940.16;4994451;28;46708;-79
2022/08/24 03:11:34;;;;;;;;;3.00;3.00;;;;;27.65;57.70;-19940.00;4994892;28;45741;-79
2022/08/24 03:14:00;;;;;;;;;5.00;4.00;;;;;27.63;57.54;-19939.34;4994602;28;45382;-79
2022/08/24 03:16:30;;;;;;;;;3.00;3.00;;;;;27.99;57.12;-19948.72;4994851;28;45423;-79
2022/08/24 03:18:56;;;;;;;;;4.00;2.00;;;;;28.01;56.68;-19949.25;4994360;28;45465;-79
2022/08/24 03:21:21;;;;;;;;;5.33;3.00;;;;;27.88;56.64;-19945.94;4994311;28;45566;-79
2022/08/24 03:23:46;;;;;;;;;2.00;2.00;;;;;27.78;57.31;-19943.44;4994210;27;45450;-79
2022/08/24 03:26:12;;;;;;;;;2.00;2.00;;;;;27.60;57.86;-19938.56;4994891;28;45489;-79
2022/08/24 03:28:38;;;;;;;;;4.00;4.00;;;;;27.53;58.07;-19936.97;4994461;28;45660;-79
2022/08/24 03:31:05;;;;;;;;;2.33;2.00;;;;;27.85;57.81;-19945.03;4976511;28;45613;-79
2022/08/24 03:33:30;;;;;;;;;3.67;3.33;;;;;27.49;58.45;-19935.78;4994464;28;45412;-79
2022/08/24 03:35:56;;;;;;;;;6.00;3.00;;;;;27.51;58.85;-19936.44;4994688;28;45372;-79
2022/08/24 03:38:21;;;;;;;;;4.00;4.00;;;;;27.46;58.67;-19935.13;4994241;28;45492;-79
2022/08/24 03:40:47;;;;;;;;;3.67;3.00;;;;;27.38;58.52;-19933.00;4976662;28;45645;-79
2022/08/24 03:43:44;;;;;;;;;4.67;3.67;;;;;27.49;58.83;-19935.78;4994240;28;45441;-79
2022/08/24 03:46:01;;;;;;;;;4.00;2.00;;;;;27.50;58.41;-19936.19;4994091;28;45467;-79
2022/08/24 03:48:28;;;;;;;;;2.67;2.67;;;;;27.37;58.77;-19932.75;4994127;28;46472;-79
2022/08/24 03:50:54;;;;;;;;;3.00;3.00;;;;;27.43;59.06;-19934.19;4993964;28;45387;-79
2022/08/24 03:53:20;;;;;;;;;4.00;4.00;;;;;27.36;58.95;-19932.63;4994122;28;45468;-79
2022/08/24 03:55:45;;;;;;;;;1.67;1.67;;;;;27.33;58.96;-19931.81;4994397;28;45450;-79
2022/08/24 03:58:11;;;;;;;;;3.33;2.33;;;;;27.32;58.97;-19931.44;4993784;28;45373;-79
2022/08/24 04:00:41;;;;;;;;;5.00;3.00;;;;;27.22;59.26;-19928.91;4993851;28;45578;-79
2022/08/24 04:03:06;;;;;;;;;6.00;5.00;;;;;27.24;59.05;-19929.44;4994220;28;45469;-79
2022/08/24 04:05:32;;;;;;;;;3.33;2.67;;;;;27.22;59.43;-19928.78;4994318;28;45473;-79
2022/08/24 04:07:57;;;;;;;;;5.00;5.00;;;;;27.22;59.60;-19928.78;4993861;28;46327;-79
2022/08/24 04:10:22;;;;;;;;;5.00;4.00;;;;;27.13;59.75;-19926.53;4993912;28;45496;-79
2022/08/24 04:12:48;;;;;;;;;5.33;3.67;;;;;27.12;59.63;-19926.41;4993140;28;45577;-79
2022/08/24 04:15:13;;;;;;;;;2.00;2.00;;;;;27.14;59.77;-19926.81;4994143;28;45487;-79
2022/08/24 04:17:39;;;;;;;;;3.00;3.00;;;;;27.38;58.84;-19933.00;4993836;28;45728;-79
2022/08/24 04:20:05;;;;;;;;;2.33;2.33;;;;;27.44;58.72;-19934.47;4976447;28;45459;-79
2022/08/24 04:22:32;;;;;;;;;5.33;3.00;;;;;27.43;58.67;-19934.19;4993958;28;45425;-79
2022/08/24 04:24:58;;;;;;;;;3.33;3.33;;;;;27.43;58.53;-19934.34;4993742;28;45506;-79
2022/08/24 04:27:24;;;;;;;;;3.33;3.00;;;;;27.45;58.74;-19934.72;4993305;28;46285;-79
2022/08/24 04:29:50;;;;;;;;;3.00;3.00;;;;;27.42;58.59;-19934.06;4993855;28;45806;-79
2022/08/24 04:32:16;;;;;;;;;4.33;3.33;;;;;27.08;59.99;-19925.34;4976125;28;45502;-79
2022/08/24 04:34:42;;;;;;;;;2.67;2.67;;;;;27.34;58.92;-19932.09;4993891;28;45378;-79
2022/08/24 04:37:08;;;;;;;;;1.00;1.00;;;;;27.01;59.90;-19923.50;4975622;28;47380;-79
2022/08/24 04:39:33;;;;;;;;;1.00;1.00;;;;;27.00;59.98;-19923.25;4993568;28;45413;-79
2022/08/24 04:41:59;;;;;;;;;2.00;2.00;;;;;26.85;60.06;-19919.41;4993660;28;45385;-79
2022/08/24 04:44:24;;;;;;;;;2.67;2.67;;;;;26.98;60.49;-19922.56;4993427;28;45423;-79
2022/08/24 04:46:50;;;;;;;;;3.00;3.00;;;;;26.87;60.66;-19919.81;4993200;28;45722;-79
2022/08/24 04:49:15;;;;;;;;;4.00;2.33;;;;;26.94;60.75;-19921.66;4993174;28;45513;-79
2022/08/24 04:51:41;;;;;;;;;4.33;4.33;;;;;26.94;60.82;-19921.78;4993390;28;45377;-79
2022/08/24 04:54:07;;;;;;;;;3.33;3.33;;;;;26.94;60.50;-19921.66;4993804;28;45448;-79
2022/08/24 04:56:33;;;;;;;;;4.67;4.00;;;;;26.93;60.97;-19921.38;4993111;28;46342;-79
2022/08/24 04:58:59;;;;;;;;;4.00;4.00;;;;;26.81;60.72;-19918.22;4975037;28;46100;-79
2022/08/24 05:01:27;;;;;;;;;4.00;4.00;;;;;26.93;60.84;-19921.38;4993151;28;45609;-79
2022/08/24 05:03:54;;;;;;;;;4.00;4.00;;;;;26.98;60.92;-19922.72;4993618;28;45622;-79
2022/08/24 05:06:23;;;;;;;;;4.67;4.67;;;;;27.15;60.50;-19927.06;4992848;28;45607;-79
2022/08/24 05:08:49;;;;;;;;;3.00;3.00;;;;;27.26;59.82;-19929.97;4990270;28;45556;-77
2022/08/24 05:11:16;;;;;;;;;3.00;3.00;;;;;27.07;60.37;-19925.09;4992460;28;45358;-79
2022/08/24 05:13:42;;;;;;;;;6.33;3.33;;;;;27.04;60.22;-19924.16;5041033;27;45461;-79
2022/08/24 05:16:14;;;;;;;;;4.50;3.00;;;;;26.95;60.95;-19921.91;5024657;27;46431;-79
2022/08/24 05:18:40;;;;;;;;;4.67;4.67;;;;;26.95;60.80;-19922.06;5034331;28;46084;-78
2022/08/24 05:21:07;;;;;;;;;4.75;3.00;;;;;26.93;61.10;-19921.53;5062007;27;45568;-79
2022/08/24 05:23:34;;;;;;;;;4.00;4.00;;;;;26.91;61.22;-19920.88;5027826;27;45436;-78
2022/08/24 05:26:11;;;;;;;;;3.00;3.00;;;;;26.92;60.73;-19921.25;5001895;27;45574;-78
2022/08/24 05:28:38;;;;;;;;;3.00;3.00;;;;;26.98;61.06;-19922.72;5056821;27;45407;-78
2022/08/24 05:31:12;;;;;;;;;5.00;3.67;;;;;27.35;60.13;-19932.22;5041756;27;45445;-78
2022/08/24 05:33:38;;;;;;;;;6.33;4.67;;;;;27.07;61.14;-19925.09;5084765;27;45560;-78
2022/08/24 05:36:05;;;;;;;;;4.00;4.00;;;;;27.06;60.95;-19924.69;5037247;27;46799;-78
2022/08/24 05:38:32;;;;;;;;;5.33;4.33;;;;;27.39;60.15;-19933.28;4975840;28;45790;-79
2022/08/24 05:40:58;;;;;;;;;6.33;4.00;;;;;27.41;59.81;-19933.69;5068625;27;45499;-78
2022/08/24 05:43:23;;;;;;;;;3.00;3.00;;;;;27.23;60.32;-19929.06;5029752;27;45516;-78
2022/08/24 05:45:49;;;;;;;;;4.00;4.00;;;;;27.24;60.23;-19929.31;5083962;27;45511;-79
2022/08/24 05:48:14;;;;;;;;;4.00;4.00;;;;;27.15;60.42;-19927.06;5006692;27;46089;-79
2022/08/24 05:50:40;;;;;;;;;5.00;5.00;;;;;27.27;60.30;-19930.09;5005171;28;45386;-79
2022/08/24 05:53:05;;;;;;;;;3.67;3.33;;;;;27.34;60.19;-19931.97;5055392;27;45695;-79
2022/08/24 05:55:30;;;;;;;;;5.00;3.33;;;;;27.31;60.31;-19931.16;5028797;27;45590;-78
2022/08/24 05:57:56;;;;;;;;;3.00;3.00;;;;;27.34;60.30;-19931.97;5080038;27;45446;-79
2022/08/24 06:00:24;;;;;;;;;3.33;3.33;;;;;27.30;60.15;-19930.91;5047466;27;45461;-79
2022/08/24 06:02:51;;;;;;;;;5.67;4.00;;;;;27.32;60.65;-19931.56;5049905;27;45439;-79
2022/08/24 06:05:17;;;;;;;;;3.67;3.67;;;;;27.47;59.90;-19935.38;5079004;27;45566;-79
2022/08/24 06:07:42;;;;;;;;;4.00;4.00;;;;;27.50;60.17;-19936.19;5028723;27;45504;-79
2022/08/24 06:10:09;;;;;;;;;4.00;3.00;;;;;27.55;59.46;-19937.50;5072299;27;45464;-79
2022/08/24 06:12:35;;;;;;;;;3.00;3.00;;;;;27.62;59.61;-19939.09;5054982;27;45471;-79
2022/08/24 06:15:00;;;;;;;;;5.00;5.00;;;;;27.50;59.44;-19936.06;5032275;27;46265;-79
2022/08/24 06:17:26;;;;;;;;;4.67;3.67;;;;;27.70;59.38;-19941.19;5080479;27;45800;-79
2022/08/24 06:19:51;;;;;;;;;6.00;6.00;;;;;27.64;58.76;-19939.63;5030019;27;46004;-79
2022/08/24 06:22:16;;;;;;;;;4.00;3.33;;;;;27.85;58.64;-19945.03;5068368;27;45575;-79
2022/08/24 06:27:26;;;;;;;;;4.00;4.00;;;;;27.87;58.56;-19945.69;5011690;27;45481;-79
2022/08/24 06:29:59;;;;;;;;;6.00;5.00;;;;;27.91;58.71;-19946.59;5032233;27;45626;-76
2022/08/24 06:32:25;;;;;;;;;4.67;4.00;;;;;27.94;58.23;-19947.53;5049439;27;45506;-76
2022/08/24 06:34:55;;;;;;;;;5.67;2.00;;;;;28.06;58.11;-19950.44;5047713;27;46353;-75
2022/08/24 06:37:25;;;;;;;;;5.67;5.67;;;;;28.08;57.81;-19951.09;5019404;28;45461;-76
2022/08/24 06:39:51;;;;;;;;;4.00;4.00;;;;;28.02;57.60;-19949.50;4995049;28;45536;-76
2022/08/24 06:42:16;;;;;;;;;5.00;5.00;;;;;28.08;57.75;-19950.97;4995362;28;45503;-76
2022/08/24 06:44:41;;;;;;;;;5.00;5.00;;;;;28.12;57.26;-19952.00;4994583;28;45591;-76
2022/08/24 06:47:07;;;;;;;;;4.00;3.00;;;;;28.16;57.29;-19953.06;4994918;28;45480;-75
2022/08/24 06:49:32;;;;;;;;;5.00;4.00;;;;;28.19;57.06;-19953.88;4977082;28;45465;-76
2022/08/24 06:51:57;;;;;;;;;4.00;4.00;;;;;28.24;57.29;-19955.19;4995256;28;45363;-75
2022/08/24 06:54:23;;;;;;;;;6.00;6.00;;;;;28.21;56.95;-19954.38;4994551;28;45342;-76
2022/08/24 06:56:48;;;;;;;;;5.33;5.33;;;;;28.28;57.07;-19956.22;4977244;28;45477;-76
2022/08/24 06:59:13;;;;;;;;;7.00;5.67;;;;;28.29;56.97;-19956.50;4994799;28;45439;-76
2022/08/24 07:01:39;;;;;;;;;5.33;5.33;;;;;28.37;56.36;-19958.47;4994769;28;45670;-76
2022/08/24 07:04:04;;;;;;;;;7.67;7.00;;;;;28.38;56.75;-19958.88;4993802;28;46193;-75
2022/08/24 07:06:29;;;;;;;;;6.00;6.00;;;;;28.46;56.42;-19960.84;4977040;28;45473;-76
2022/08/24 07:08:55;;;;;;;;;7.33;7.33;;;;;28.45;56.30;-19960.59;4994360;28;45492;-76
2022/08/24 07:11:21;;;;;;;;;6.33;6.33;;;;;28.54;56.00;-19962.84;4994769;28;45481;-76
2022/08/24 07:13:48;;;;;;;;;4.33;4.00;;;;;28.57;55.80;-19963.63;4977009;28;45921;-76
2022/08/24 07:16:15;;;;;;;;;6.67;5.00;;;;;28.59;56.22;-19964.28;4994612;28;45444;-76
2022/08/24 07:18:40;;;;;;;;;4.67;4.67;;;;;28.65;56.14;-19965.59;4994444;28;45440;-76
2022/08/24 07:21:06;;;;;;;;;6.67;5.67;;;;;28.70;55.88;-19966.91;4994953;28;45683;-75
2022/08/24 07:23:31;;;;;;;;;7.67;6.00;;;;;28.80;55.36;-19967.56;4994213;28;47003;-76
2022/08/24 07:26:07;;;;;;;;;6.33;5.67;;;;;28.82;54.95;-19627.50;4994201;28;46080;-75
2022/08/24 07:28:39;;;;;;;;;9.00;4.00;;;;;28.87;55.53;-19969.28;4994761;28;45422;-79
2022/08/24 07:31:08;;;;;;;;;7.00;5.67;;;;;28.92;54.99;-19629.94;4995048;28;45499;-79
2022/08/24 07:33:33;;;;;;;;;7.33;5.00;;;;;28.97;55.26;-19631.25;4994425;28;45534;-79
2022/08/24 07:35:59;;;;;;;;;7.67;6.00;;;;;29.01;54.92;-19632.28;4994226;28;45528;-79
2022/08/24 07:38:25;;;;;;;;;5.33;5.33;;;;;29.03;54.85;-19292.06;4994163;28;45434;-79
2022/08/24 07:40:51;;;;;;;;;4.00;3.33;;;;;29.08;54.44;-19293.31;4994342;28;45532;-79
2022/08/24 07:43:17;;;;;;;;;8.00;4.00;;;;;29.09;55.11;-19634.34;4994240;28;46279;-79
2022/08/24 07:45:42;;;;;;;;;4.00;4.00;;;;;29.11;54.59;-19294.09;4976381;28;45532;-79
2022/08/24 07:48:08;;;;;;;;;5.00;5.00;;;;;29.22;54.09;-19296.72;4975523;28;45421;-79
2022/08/24 07:50:33;;;;;;;;;6.00;5.00;;;;;29.31;54.50;-19299.00;4994373;28;45489;-79
2022/08/24 07:52:59;;;;;;;;;5.00;5.00;;;;;29.32;53.73;-18276.31;4976157;28;48123;-79
2022/08/24 07:55:24;;;;;;;;;4.00;4.00;;;;;29.40;54.38;-18960.19;4994126;28;45494;-79
2022/08/24 07:57:50;;;;;;;;;5.00;5.00;;;;;29.41;53.92;-18619.44;4994417;28;45463;-79
2022/08/24 08:00:18;;;;;;;;;5.67;5.33;;;;;29.47;53.41;-17938.75;4994079;28;45736;-79
2022/08/24 08:02:45;;;;;;;;;5.67;5.00;;;;;29.48;53.32;-18279.97;4993798;28;45624;-79
2022/08/24 08:05:13;;;;;;;;;3.33;3.33;;;;;29.55;52.61;-17599.31;4994162;28;45519;-79
2022/08/24 08:07:38;;;;;;;;;4.00;4.00;;;;;29.67;53.14;-17943.38;4993838;28;45501;-79
2022/08/24 08:10:04;;;;;;;;;4.67;4.33;;;;;29.71;52.91;-17944.16;4994206;28;45448;-79
2022/08/24 08:12:29;;;;;;;;;4.00;3.00;;;;;29.75;53.09;-17944.97;4993788;28;47029;-79
2022/08/24 08:14:56;;;;;;;;;7.00;6.00;;;;;29.85;53.05;-17947.28;4993817;28;45367;-80
2022/08/24 08:17:21;;;;;;;;;6.00;6.00;;;;;29.93;52.85;-17607.75;4993812;28;45465;-79
2022/08/24 08:19:46;;;;;;;;;4.00;4.00;;;;;29.99;53.23;-17609.13;4994453;28;45449;-79
2022/08/24 08:24:56;;;;;;;;;4.67;4.33;;;;;30.15;52.55;-17271.09;4993345;28;45525;-80
2022/08/24 08:27:21;;;;;;;;;4.00;4.00;;;;;30.27;52.37;-17273.59;4993597;28;45373;-79
2022/08/24 08:29:50;;;;;;;;;4.67;4.33;;;;;30.35;51.87;-16933.59;4994067;28;45578;-75
2022/08/24 08:32:18;;;;;;;;;4.00;4.00;;;;;30.52;51.78;-16595.38;4993508;28;45517;-76
2022/08/24 08:34:45;;;;;;;;;6.25;4.00;;;;;30.64;51.38;-15914.19;4993573;28;45471;-76
2022/08/24 08:37:11;;;;;;;;;5.33;4.00;;;;;30.86;50.66;-15576.41;4993247;28;45440;-76
2022/08/24 08:39:37;;;;;;;;;6.00;4.67;;;;;31.06;50.33;-15237.84;4993731;28;45451;-76
2022/08/24 08:42:15;;;;;;;;;4.67;4.00;;;;;31.41;49.85;-14901.78;4993505;28;45686;-76
2022/08/24 08:44:46;;;;;;;;;5.00;4.00;;;;;31.70;48.94;-14221.72;4993562;28;45504;-76
2022/08/24 08:47:49;;;;;;;;;5.33;5.00;;;;;31.79;48.66;-13537.81;4993443;28;45428;-76
2022/08/24 08:50:20;;;;;;;;;3.67;3.67;;;;;31.78;47.79;-12509.31;4993190;28;45545;-76
2022/08/24 08:53:01;;;;;;;;;5.00;5.00;;;;;32.06;47.35;-11827.19;4992974;28;46233;-75
2022/08/24 08:55:40;;;;;;;;;4.00;3.00;;;;;32.43;46.95;-11488.56;4975648;28;45509;-76
2022/08/24 08:58:11;;;;;;;;;7.00;5.00;;;;;33.42;45.25;-10125.28;4994254;28;45694;-76
2022/08/24 09:01:11;;;;;;;;;4.67;4.67;;;;;35.17;42.39;-7727.84;4978677;28;45595;-75
2022/08/24 09:04:24;;;;;;;;;3.75;3.75;;;;;35.73;40.84;-5312.84;4996046;28;45513;-76
2022/08/24 09:06:56;;;;;;;;;4.25;4.00;;;;;35.87;40.67;-3238.56;4996097;28;45438;-76
2022/08/24 09:09:42;;;;;;;;;5.67;4.33;;;;;37.31;38.63;-2890.56;4996071;28;45482;-76
2022/08/24 09:12:24;;;;;;;;;4.33;4.00;;;;;39.21;35.72;-800.88;4996564;28;45386;-76
2022/08/24 09:15:06;;;;;;;;;4.00;4.00;;;;;40.80;33.53;2346.91;4995927;28;45460;-76
2022/08/24 09:17:40;;;;;;;;;3.33;3.33;;;;;41.83;31.96;5504.53;4995969;28;45508;-76
2022/08/24 09:20:20;;;;;;;;;3.67;3.67;;;;;42.76;30.16;7270.66;4995840;28;45513;-76
2022/08/24 09:22:47;;;;;;;;;4.67;3.67;;;;;43.41;28.72;9387.88;4996423;28;45393;-76
2022/08/24 09:25:25;;;;;;;;;2.67;2.67;;;;;43.86;28.88;10099.84;4995678;27;45990;-76
2022/08/24 09:28:11;;;;;;;;;3.33;3.33;;;;;44.36;27.80;11166.09;4995917;28;45386;-76
2022/08/24 09:31:02;;;;;;;;;2.33;2.33;;;;;44.57;27.13;12226.81;4978271;28;45454;-76
2022/08/24 09:33:44;;;;;;;;;2.00;2.00;;;;;45.04;27.06;12943.09;4997952;28;45333;-76
2022/08/24 09:36:42;;;;;;;;;4.33;4.33;;;;;45.14;25.94;15060.25;4978141;28;48340;-76
2022/08/24 09:39:25;;;;;;;;;2.67;2.67;;;;;45.46;26.60;14364.63;4995521;28;45537;-76
2022/08/24 09:42:07;;;;;;;;;3.67;2.00;;;;;45.62;25.33;16485.97;4978233;28;45477;-76
2022/08/24 09:45:01;;;;;;;;;2.00;2.00;;;;;45.63;24.76;18251.53;4996258;28;45731;-77
2022/08/24 09:47:42;;;;;;;;;2.33;2.33;;;;;45.68;24.93;18959.41;5003521;28;46473;-76
2022/08/24 09:50:31;;;;;;;;;2.33;1.33;;;;;45.59;24.92;20369.09;4995610;28;45426;-76
2022/08/24 09:53:11;;;;;;;;;4.00;3.00;;;;;45.67;24.77;20018.72;4995767;28;45464;-73
2022/08/24 09:55:43;;;;;;;;;2.33;2.33;;;;;45.70;25.12;21433.28;4995877;28;45521;-73
2022/08/24 09:58:23;;;;;;;;;2.00;2.00;;;;;45.57;24.71;22841.66;4995236;28;47036;-73
2022/08/24 10:01:01;;;;;;;;;2.33;2.33;;;;;45.41;24.66;23961.84;4995311;28;45502;-73
2022/08/24 10:03:57;;;;;;;;;1.00;1.00;;;;;45.36;24.71;24743.94;4995150;28;45553;-73
2022/08/24 10:06:31;;;;;;;;;1.00;1.00;;;;;45.25;24.93;25600.59;4995807;28;45506;-73
2022/08/24 10:09:07;;;;;;;;;4.00;4.00;;;;;45.08;24.59;27211.56;4994790;28;46420;-73
2022/08/24 10:12:10;;;;;;;;;3.00;3.00;;;;;44.96;25.36;27779.91;4995029;28;45580;-73
2022/08/24 10:14:35;;;;;;;;;1.00;1.00;;;;;44.87;25.09;28670.59;4977790;28;45410;-73
2022/08/24 10:17:11;;;;;;;;;1.33;1.33;;;;;44.65;25.01;30493.91;4995334;28;45478;-73
2022/08/24 10:19:49;;;;;;;;;1.67;1.67;;;;;44.53;25.18;31689.19;4995177;28;45633;-73
2022/08/24 10:22:27;;;;;;;;;2.00;1.67;;;;;44.42;25.83;31489.56;4995312;28;45490;-73
2022/08/24 10:25:28;;;;;;;;;3.00;2.00;;;;;44.31;25.40;32768.00;4995063;27;45542;-73
2022/08/24 10:28:30;;;;;;;;;0.00;0.00;;;;;44.12;25.20;34174.50;4995147;28;45585;-73
2022/08/24 10:31:09;;;;;;;;;4.00;2.00;;;;;43.89;25.41;35291.09;4995132;28;46555;-73
2022/08/24 10:34:11;;;;;;;;;0.00;0.00;;;;;43.75;25.23;37023.13;4995120;28;45405;-73
2022/08/24 10:36:47;;;;;;;;;2.00;0.33;;;;;43.49;26.01;37727.91;4974042;28;45508;-73
2022/08/24 10:39:46;;;;;;;;;0.00;0.00;;;;;43.39;25.76;38224.13;4975699;28;45470;-73
2022/08/24 10:43:32;;;;;;;;;0.00;0.00;;;;;43.46;25.20;38543.88;4975231;28;45422;-74
2022/08/24 10:45:44;;;;;;;;;1.25;0.00;;;;;43.35;24.51;40324.91;4975617;28;45572;-74
2022/08/24 10:48:35;;;;;;;;;1.00;1.00;;;;;43.35;25.64;39044.88;4956371;28;45594;-73
2022/08/24 10:51:28;;;;;;;;;0.00;0.00;;;;;43.30;25.56;39400.69;4937433;28;45547;-73
2022/08/24 10:53:55;;;;;;;;;1.00;1.00;;;;;43.40;25.56;38926.69;4936854;28;46052;-73
2022/08/24 10:56:34;;;;;;;;;1.00;1.00;;;;;43.51;24.84;39445.25;4936980;28;45780;-73
2022/08/24 10:59:14;;;;;;;;;1.00;1.00;;;;;43.48;24.76;40385.91;4937051;28;45579;-74
2022/08/24 11:02:05;;;;;;;;;0.50;0.50;;;;;43.26;25.30;40572.50;4937105;28;45508;-73
2022/08/24 11:04:34;;;;;;;;;1.00;1.00;;;;;43.20;25.30;40115.69;4937028;28;47440;-76
2022/08/24 11:07:20;;;;;;;;;0.00;0.00;;;;;43.24;25.65;40601.47;4936650;28;45401;-73
2022/08/24 11:09:52;;;;;;;;;1.00;1.00;;;;;43.17;25.64;40613.78;4937026;28;46153;-73
2022/08/24 11:12:33;;;;;;;;;0.00;0.00;;;;;43.21;25.33;40931.41;4937206;28;45673;-73
2022/08/24 11:15:22;;;;;;;;;2.00;2.00;;;;;43.10;25.51;41368.50;4936484;28;46288;-73
2022/08/24 11:18:00;;;;;;;;;0.00;0.00;;;;;43.18;25.89;40871.56;4936653;28;45610;-73
2022/08/24 11:20:35;;;;;;;;;0.67;0.67;;;;;43.30;25.36;40987.59;4936720;28;45533;-73
2022/08/24 11:23:13;;;;;;;;;1.00;1.00;;;;;43.28;25.20;41309.66;4937054;28;45679;-76
2022/08/24 11:25:50;;;;;;;;;1.00;0.00;;;;;43.44;24.72;41033.22;4931747;28;45669;-73
2022/08/24 11:28:27;;;;;;;;;0.00;0.00;;;;;43.46;24.71;41170.19;4945281;28;45618;-73
2022/08/24 11:30:53;;;;;;;;;1.00;1.00;;;;;43.36;24.56;41973.22;4955239;28;45556;-81
2022/08/24 11:33:30;;;;;;;;;0.00;0.00;;;;;43.30;24.95;41919.41;4955501;28;45605;-80
2022/08/24 11:35:58;;;;;;;;;0.75;0.75;;;;;43.32;25.38;41754.56;4955273;28;46362;-80
2022/08/24 11:38:30;;;;;;;;;1.33;0.00;;;;;43.41;24.45;42051.53;4953802;28;45439;-79
2022/08/24 11:41:05;;;;;;;;;1.00;1.00;;;;;43.54;24.65;41134.44;4953992;28;45436;-80
2022/08/24 11:43:45;;;;;;;;;0.00;0.00;;;;;43.27;25.21;42157.78;4955464;28;45482;-80
2022/08/24 11:46:49;;;;;;;;;0.00;0.00;;;;;43.31;24.94;42340.50;4955157;28;47521;-80
2022/08/24 11:49:33;;;;;;;;;0.00;0.00;;;;;43.33;24.66;42479.88;4954917;28;45561;-80
2022/08/24 11:52:14;;;;;;;;;0.00;0.00;;;;;43.19;25.25;43047.84;4954184;28;45449;-80